Time;durP1;ratioP1;P1;durP2;ratioP2;P2;SDS_P1;SDS_P2;PMS_P1;PMS_P2;Temp;Humidity;BMP_temperature;BMP_pressure;BME280_temperature;BME280_humidity;BME280_pressure;Samples;Min_cycle;Max_cycle;Signal;HPM_P1;HPM_P2
2023/04/25 00:01:59;;;;;;;4.50;3.20;;;;;;;;;;5018246;28;20046;-86
2023/04/25 00:04:29;;;;;;;3.90;3.38;;;;;;;;;;5016885;28;20046;-87
2023/04/25 00:06:57;;;;;;;4.72;3.63;;;;;;;;;;5018192;28;20054;-87
2023/04/25 00:09:25;;;;;;;4.43;3.40;;;;;;;;;;5020112;28;20045;-86
2023/04/25 00:11:52;;;;;;;4.35;3.25;;;;;;;;;;5015640;28;20149;-86
2023/04/25 00:14:19;;;;;;;6.43;4.03;;;;;;;;;;5016523;28;20056;-85
2023/04/25 00:16:46;;;;;;;4.32;3.20;;;;;;;;;;5013287;28;20465;-86
2023/04/25 00:19:13;;;;;;;4.05;3.70;;;;;;;;;;5012970;28;20056;-86
2023/04/25 00:21:41;;;;;;;5.82;3.53;;;;;;;;;;5012866;28;20053;-86
2023/04/25 00:24:08;;;;;;;5.75;3.28;;;;;;;;;;5013443;28;20505;-85
2023/04/25 00:26:35;;;;;;;3.83;3.53;;;;;;;;;;5013472;28;20129;-85
2023/04/25 00:29:03;;;;;;;3.60;3.30;;;;;;;;;;5013303;28;20080;-85
2023/04/25 00:31:30;;;;;;;3.90;3.60;;;;;;;;;;5017467;28;20053;-86
2023/04/25 00:33:57;;;;;;;8.73;3.35;;;;;;;;;;5018475;28;20077;-86
2023/04/25 00:36:25;;;;;;;4.63;3.70;;;;;;;;;;5018783;28;20420;-86
2023/04/25 00:38:54;;;;;;;4.75;3.50;;;;;;;;;;5020053;28;20050;-86
2023/04/25 00:41:21;;;;;;;5.10;3.40;;;;;;;;;;5018851;28;20077;-86
2023/04/25 00:43:49;;;;;;;5.15;3.40;;;;;;;;;;5019836;28;20050;-86
2023/04/25 00:46:17;;;;;;;4.43;4.03;;;;;;;;;;5020365;28;20109;-86
2023/04/25 00:48:44;;;;;;;6.43;3.85;;;;;;;;;;5020378;28;20073;-86
2023/04/25 00:51:14;;;;;;;5.15;3.70;;;;;;;;;;5019729;28;20122;-86
2023/04/25 00:53:42;;;;;;;5.25;3.95;;;;;;;;;;5018941;28;20046;-86
2023/04/25 00:56:09;;;;;;;6.22;4.13;;;;;;;;;;5019297;28;20062;-86
2023/04/25 00:58:36;;;;;;;5.90;4.00;;;;;;;;;;5019348;28;20133;-86
2023/04/25 01:01:04;;;;;;;7.55;3.63;;;;;;;;;;5018162;28;20050;-86
2023/04/25 01:03:35;;;;;;;4.35;3.88;;;;;;;;;;5021611;28;20054;-86
2023/04/25 01:06:03;;;;;;;3.92;3.50;;;;;;;;;;5018721;28;20050;-86
2023/04/25 01:08:30;;;;;;;7.20;3.75;;;;;;;;;;5019063;28;20049;-86
2023/04/25 01:10:58;;;;;;;12.38;4.25;;;;;;;;;;5020077;28;20046;-86
2023/04/25 01:13:25;;;;;;;6.63;4.40;;;;;;;;;;5018883;28;20067;-86
2023/04/25 01:15:52;;;;;;;7.47;4.10;;;;;;;;;;5018874;28;20056;-87
2023/04/25 01:18:20;;;;;;;6.85;3.80;;;;;;;;;;5019598;28;20056;-86
2023/04/25 01:20:47;;;;;;;4.57;4.07;;;;;;;;;;5019970;28;20056;-86
2023/04/25 01:23:14;;;;;;;6.50;3.92;;;;;;;;;;5019911;28;20148;-87
2023/04/25 01:25:42;;;;;;;8.75;4.25;;;;;;;;;;5020339;28;20129;-86
2023/04/25 01:28:09;;;;;;;5.03;3.67;;;;;;;;;;5017178;28;20042;-87
2023/04/25 01:30:36;;;;;;;5.18;4.28;;;;;;;;;;5017494;28;20060;-86
2023/04/25 01:33:05;;;;;;;6.47;3.65;;;;;;;;;;5017601;28;20172;-87
2023/04/25 01:35:32;;;;;;;4.63;4.07;;;;;;;;;;5018277;28;20066;-87
2023/04/25 01:37:59;;;;;;;9.93;4.68;;;;;;;;;;5018306;28;20492;-87
2023/04/25 01:40:27;;;;;;;6.97;5.03;;;;;;;;;;5023648;28;20050;-87
2023/04/25 01:42:55;;;;;;;8.63;4.43;;;;;;;;;;5032742;28;20094;-88
2023/04/25 01:45:22;;;;;;;4.75;4.28;;;;;;;;;;5024862;28;20042;-87
2023/04/25 01:47:50;;;;;;;6.05;5.10;;;;;;;;;;5025487;28;20056;-87
2023/04/25 01:50:18;;;;;;;6.65;5.07;;;;;;;;;;5025700;28;20508;-87
2023/04/25 01:52:45;;;;;;;6.65;5.40;;;;;;;;;;5023772;28;20133;-86
2023/04/25 01:55:13;;;;;;;6.30;5.63;;;;;;;;;;5019520;28;20083;-87
2023/04/25 01:57:40;;;;;;;9.43;6.43;;;;;;;;;;5020021;28;20050;-86
2023/04/25 02:00:08;;;;;;;11.02;7.57;;;;;;;;;;5018600;28;20050;-87
2023/04/25 02:02:36;;;;;;;9.00;6.28;;;;;;;;;;5018641;28;20041;-87
2023/04/25 02:05:03;;;;;;;6.40;5.80;;;;;;;;;;5017160;28;20042;-86
2023/04/25 02:07:30;;;;;;;7.93;5.95;;;;;;;;;;5017110;28;20141;-87
2023/04/25 02:09:58;;;;;;;7.68;6.18;;;;;;;;;;5017084;28;20074;-88
2023/04/25 02:12:26;;;;;;;8.55;6.60;;;;;;;;;;5016924;28;20060;-87
2023/04/25 02:14:53;;;;;;;11.88;7.60;;;;;;;;;;5016568;28;20461;-86
2023/04/25 02:17:21;;;;;;;8.95;7.05;;;;;;;;;;5018174;28;20489;-86
2023/04/25 02:19:48;;;;;;;10.40;6.80;;;;;;;;;;5016217;28;20516;-85
2023/04/25 02:22:15;;;;;;;13.85;7.65;;;;;;;;;;5016509;28;20497;-86
2023/04/25 02:24:43;;;;;;;9.93;7.43;;;;;;;;;;5016124;28;20416;-86
2023/04/25 02:27:10;;;;;;;7.80;7.10;;;;;;;;;;5016458;28;20053;-86
2023/04/25 02:29:37;;;;;;;10.20;6.78;;;;;;;;;;5016155;28;20052;-87
2023/04/25 02:32:05;;;;;;;7.53;6.78;;;;;;;;;;5017127;28;20428;-86
2023/04/25 02:34:32;;;;;;;8.57;6.10;;;;;;;;;;5015718;28;20397;-87
2023/04/25 02:36:59;;;;;;;7.82;6.53;;;;;;;;;;5015456;28;20104;-87
2023/04/25 02:39:27;;;;;;;8.13;6.57;;;;;;;;;;5014874;28;20421;-86
2023/04/25 02:41:54;;;;;;;14.32;7.22;;;;;;;;;;5015430;28;20046;-86
2023/04/25 02:44:21;;;;;;;8.50;6.72;;;;;;;;;;5015191;28;20133;-86
2023/04/25 02:46:48;;;;;;;13.45;7.30;;;;;;;;;;5017558;28;20492;-86
2023/04/25 02:49:15;;;;;;;10.02;7.20;;;;;;;;;;5015698;28;20045;-86
2023/04/25 02:51:43;;;;;;;13.90;7.75;;;;;;;;;;5016240;28;20054;-87
2023/04/25 02:54:10;;;;;;;9.98;7.50;;;;;;;;;;5015712;28;20049;-86
2023/04/25 02:56:37;;;;;;;8.30;7.22;;;;;;;;;;5016668;28;20128;-86
2023/04/25 02:59:05;;;;;;;8.80;7.03;;;;;;;;;;5014968;28;20112;-87
2023/04/25 03:01:32;;;;;;;8.30;6.75;;;;;;;;;;5014037;28;20046;-86
2023/04/25 03:03:59;;;;;;;7.85;6.40;;;;;;;;;;5014281;28;20060;-86
2023/04/25 03:06:26;;;;;;;7.50;6.80;;;;;;;;;;5014436;28;20112;-86
2023/04/25 03:08:53;;;;;;;8.32;7.18;;;;;;;;;;5014750;28;20050;-86
2023/04/25 03:11:21;;;;;;;11.63;6.55;;;;;;;;;;5014438;28;20081;-86
2023/04/25 03:13:48;;;;;;;9.93;7.57;;;;;;;;;;5017028;28;20073;-87
2023/04/25 03:16:15;;;;;;;7.93;6.68;;;;;;;;;;5016303;28;20429;-87
2023/04/25 03:18:43;;;;;;;7.20;6.50;;;;;;;;;;5016495;28;20060;-90
2023/04/25 03:21:10;;;;;;;9.27;6.72;;;;;;;;;;5014804;28;20061;-87
2023/04/25 03:23:37;;;;;;;9.15;6.82;;;;;;;;;;5016655;28;20042;-87
2023/04/25 03:26:04;;;;;;;11.10;6.95;;;;;;;;;;5015689;28;20518;-87
2023/04/25 03:28:31;;;;;;;7.47;6.70;;;;;;;;;;5016382;28;20045;-87
2023/04/25 03:30:59;;;;;;;9.82;6.40;;;;;;;;;;5015203;28;20052;-87
2023/04/25 03:33:26;;;;;;;7.00;6.28;;;;;;;;;;5015618;28;20543;-87
2023/04/25 03:35:53;;;;;;;9.57;6.90;;;;;;;;;;5016139;28;20050;-87
2023/04/25 03:38:20;;;;;;;10.55;7.28;;;;;;;;;;5014837;28;20133;-87
2023/04/25 03:40:47;;;;;;;9.63;7.53;;;;;;;;;;5015016;28;20093;-87
2023/04/25 03:43:15;;;;;;;8.68;7.78;;;;;;;;;;5014437;28;20420;-87
2023/04/25 03:45:42;;;;;;;13.05;8.35;;;;;;;;;;5014017;28;20046;-87
2023/04/25 03:48:10;;;;;;;13.13;8.00;;;;;;;;;;5014556;28;20042;-88
2023/04/25 03:50:37;;;;;;;11.90;8.32;;;;;;;;;;5013983;28;20048;-88
2023/04/25 03:53:04;;;;;;;12.07;9.32;;;;;;;;;;5014918;28;20049;-87
2023/04/25 03:55:31;;;;;;;10.52;8.38;;;;;;;;;;5015752;28;20060;-87
2023/04/25 03:57:58;;;;;;;18.45;10.38;;;;;;;;;;5014053;28;20508;-87
2023/04/25 04:00:26;;;;;;;9.70;6.00;;;;;;;;;;5014459;28;20104;-87
2023/04/25 04:02:53;;;;;;;8.75;4.88;;;;;;;;;;5013135;28;20054;-87
2023/04/25 04:05:21;;;;;;;5.90;5.30;;;;;;;;;;5012831;28;20524;-87
2023/04/25 04:07:49;;;;;;;9.05;5.68;;;;;;;;;;5013337;28;20088;-87
2023/04/25 04:10:16;;;;;;;8.30;5.90;;;;;;;;;;5013146;28;20056;-87
2023/04/25 04:12:44;;;;;;;6.93;5.50;;;;;;;;;;5012792;28;20046;-87
2023/04/25 04:15:11;;;;;;;8.90;6.75;;;;;;;;;;5012642;28;20057;-87
2023/04/25 04:17:39;;;;;;;7.30;6.45;;;;;;;;;;5013014;28;20054;-87
2023/04/25 04:20:07;;;;;;;7.03;6.15;;;;;;;;;;5022015;23;20120;-85
2023/04/25 04:22:34;;;;;;;13.55;9.13;;;;;;;;;;5012267;28;20152;-86
2023/04/25 04:25:02;;;;;;;9.38;6.13;;;;;;;;;;5013800;28;20057;-85
2023/04/25 04:27:29;;;;;;;10.07;5.63;;;;;;;;;;5012822;28;20052;-85
2023/04/25 04:29:57;;;;;;;8.60;5.82;;;;;;;;;;5013836;28;20042;-85
2023/04/25 04:32:25;;;;;;;7.18;5.70;;;;;;;;;;5014003;28;20049;-85
2023/04/25 04:34:54;;;;;;;9.50;7.38;;;;;;;;;;5013394;28;20128;-85
2023/04/25 04:37:22;;;;;;;9.07;7.35;;;;;;;;;;5012424;28;20061;-85
2023/04/25 04:39:50;;;;;;;10.88;7.70;;;;;;;;;;5012645;28;20057;-85
2023/04/25 04:42:17;;;;;;;12.02;8.48;;;;;;;;;;5012527;28;20517;-85
2023/04/25 04:44:44;;;;;;;10.00;8.70;;;;;;;;;;5012263;28;20485;-85
2023/04/25 04:47:13;;;;;;;9.85;7.78;;;;;;;;;;5012400;28;20050;-85
2023/04/25 04:49:41;;;;;;;11.25;8.57;;;;;;;;;;5012246;28;20128;-85
2023/04/25 04:52:08;;;;;;;15.65;9.75;;;;;;;;;;5012588;28;20045;-85
2023/04/25 04:54:36;;;;;;;11.88;7.05;;;;;;;;;;5013348;28;20081;-86
2023/04/25 04:57:03;;;;;;;8.52;6.90;;;;;;;;;;5013435;28;20092;-85
2023/04/25 04:59:30;;;;;;;10.70;7.68;;;;;;;;;;5012227;28;20045;-86
2023/04/25 05:01:57;;;;;;;13.20;8.13;;;;;;;;;;5012089;28;20093;-86
2023/04/25 05:04:25;;;;;;;9.60;8.18;;;;;;;;;;5013455;28;20065;-85
2023/04/25 05:06:52;;;;;;;10.82;8.85;;;;;;;;;;5011940;28;20403;-85
2023/04/25 05:09:19;;;;;;;13.95;9.00;;;;;;;;;;5012068;28;20080;-85
2023/04/25 05:11:46;;;;;;;9.73;8.68;;;;;;;;;;5011833;28;20065;-86
2023/04/25 05:14:14;;;;;;;13.18;10.95;;;;;;;;;;5012684;28;20042;-85
2023/04/25 05:16:41;;;;;;;11.13;10.02;;;;;;;;;;5013281;28;20056;-86
2023/04/25 05:19:08;;;;;;;10.93;9.75;;;;;;;;;;5013135;28;20104;-85
2023/04/25 05:21:35;;;;;;;12.73;9.20;;;;;;;;;;5011895;28;20050;-86
2023/04/25 05:24:02;;;;;;;14.02;8.45;;;;;;;;;;5013149;28;20499;-86
2023/04/25 05:26:30;;;;;;;12.35;9.50;;;;;;;;;;5012006;28;20042;-85
2023/04/25 05:28:58;;;;;;;9.52;8.50;;;;;;;;;;5012646;28;20049;-85
2023/04/25 05:31:25;;;;;;;8.27;7.50;;;;;;;;;;5011938;28;20062;-85
2023/04/25 05:33:53;;;;;;;9.88;7.28;;;;;;;;;;5012179;28;20133;-86
2023/04/25 05:36:20;;;;;;;9.13;6.93;;;;;;;;;;5012540;28;20052;-86
2023/04/25 05:38:47;;;;;;;7.28;6.25;;;;;;;;;;5011924;28;20060;-86
2023/04/25 05:41:14;;;;;;;5.68;5.18;;;;;;;;;;5011889;28;20053;-86
2023/04/25 05:43:46;;;;;;;6.45;5.35;;;;;;;;;;5011905;28;20058;-86
2023/04/25 05:46:14;;;;;;;63.65;34.80;;;;;;;;;;5011773;28;20058;-86
2023/04/25 05:48:41;;;;;;;6.70;5.28;;;;;;;;;;5012733;28;20461;-86
2023/04/25 05:51:08;;;;;;;8.38;4.97;;;;;;;;;;5011710;28;20177;-86
2023/04/25 05:53:40;;;;;;;4.70;4.25;;;;;;;;;;5012862;28;20049;-86
2023/04/25 05:56:09;;;;;;;5.40;3.78;;;;;;;;;;5011629;28;20054;-86
2023/04/25 05:58:36;;;;;;;89.82;54.03;;;;;;;;;;5013024;28;20496;-87
2023/04/25 06:01:03;;;;;;;22.30;11.50;;;;;;;;;;5012910;28;20046;-86
2023/04/25 06:03:31;;;;;;;13.55;6.28;;;;;;;;;;5012930;28;20069;-87
2023/04/25 06:05:58;;;;;;;16.88;6.13;;;;;;;;;;5011845;28;20054;-86
2023/04/25 06:08:26;;;;;;;19.42;6.45;;;;;;;;;;5012972;28;20445;-87
2023/04/25 06:10:53;;;;;;;14.25;5.15;;;;;;;;;;5011679;28;20426;-87
2023/04/25 06:13:20;;;;;;;7.00;4.40;;;;;;;;;;5011615;28;20041;-87
2023/04/25 06:15:47;;;;;;;10.80;4.57;;;;;;;;;;5011899;28;20050;-87
2023/04/25 06:18:14;;;;;;;6.03;3.50;;;;;;;;;;5011743;28;20081;-87
2023/04/25 06:20:42;;;;;;;5.63;2.58;;;;;;;;;;5011711;28;20137;-88
2023/04/25 06:23:09;;;;;;;6.57;3.03;;;;;;;;;;5012561;28;20509;-87
2023/04/25 06:25:36;;;;;;;8.73;2.38;;;;;;;;;;5011631;28;20053;-88
2023/04/25 06:28:03;;;;;;;5.15;2.13;;;;;;;;;;5015300;28;20129;-87
2023/04/25 06:30:30;;;;;;;2.42;1.70;;;;;;;;;;5016359;28;20042;-88
2023/04/25 06:32:58;;;;;;;2.35;1.60;;;;;;;;;;5016469;28;20057;-87
2023/04/25 06:35:25;;;;;;;3.35;2.08;;;;;;;;;;5016430;28;20081;-88
2023/04/25 06:37:52;;;;;;;3.35;1.42;;;;;;;;;;5015716;28;20050;-89
2023/04/25 06:40:19;;;;;;;31.23;3.47;;;;;;;;;;5017123;28;20046;-89
2023/04/25 06:42:46;;;;;;;2.90;1.65;;;;;;;;;;5017187;28;20049;-89
2023/04/25 06:45:14;;;;;;;28.45;3.72;;;;;;;;;;5015128;28;20144;-88
2023/04/25 06:47:41;;;;;;;5.18;1.60;;;;;;;;;;5015412;28;20046;-89
2023/04/25 06:50:08;;;;;;;4.90;1.70;;;;;;;;;;5015395;28;20137;-90
2023/04/25 06:52:35;;;;;;;6.43;1.88;;;;;;;;;;5016282;28;20057;-89
2023/04/25 06:55:03;;;;;;;4.43;1.60;;;;;;;;;;5016183;28;20422;-90
2023/04/25 06:57:31;;;;;;;4.18;1.35;;;;;;;;;;5016377;28;20041;-88
2023/04/25 06:59:58;;;;;;;2.97;1.42;;;;;;;;;;5016039;28;20054;-89
2023/04/25 07:02:28;;;;;;;3.65;1.60;;;;;;;;;;5016420;28;20050;-90
2023/04/25 07:04:59;;;;;;;5.75;1.70;;;;;;;;;;5015264;28;20050;-90
2023/04/25 07:07:27;;;;;;;2.78;1.58;;;;;;;;;;5015133;28;20085;-90
2023/04/25 07:09:54;;;;;;;4.88;1.67;;;;;;;;;;5016171;28;20407;-90
2023/04/25 07:12:21;;;;;;;7.30;1.80;;;;;;;;;;5014904;28;20050;-89
2023/04/25 07:14:49;;;;;;;3.58;1.50;;;;;;;;;;5014840;28;20056;-90
2023/04/25 07:17:16;;;;;;;4.95;1.85;;;;;;;;;;5015600;28;20060;-89
2023/04/25 07:19:43;;;;;;;4.13;1.20;;;;;;;;;;5015837;28;20145;-90
2023/04/25 07:22:10;;;;;;;4.35;1.15;;;;;;;;;;5014460;28;20061;-89
2023/04/25 07:24:38;;;;;;;2.85;1.50;;;;;;;;;;5014795;28;20054;-88
2023/04/25 07:27:06;;;;;;;4.97;1.73;;;;;;;;;;5014546;28;20042;-90
2023/04/25 07:29:36;;;;;;;2.50;1.45;;;;;;;;;;5014290;28;20173;-91
2023/04/25 07:32:03;;;;;;;4.25;1.60;;;;;;;;;;5015714;28;20125;-90
2023/04/25 07:34:31;;;;;;;3.75;1.30;;;;;;;;;;5014875;28;20046;-90
2023/04/25 07:36:59;;;;;;;2.70;1.35;;;;;;;;;;5014793;28;20409;-89
2023/04/25 07:39:26;;;;;;;6.32;1.67;;;;;;;;;;5014510;28;20064;-90
2023/04/25 07:41:54;;;;;;;2.58;1.30;;;;;;;;;;5015260;28;20414;-89
2023/04/25 07:44:21;;;;;;;3.53;1.27;;;;;;;;;;5014271;28;20432;-90
2023/04/25 07:46:49;;;;;;;3.15;1.40;;;;;;;;;;5014297;28;20050;-90
2023/04/25 07:49:16;;;;;;;3.03;1.25;;;;;;;;;;5013788;28;20053;-90
2023/04/25 07:51:43;;;;;;;1.52;1.15;;;;;;;;;;5013836;28;20129;-90
2023/04/25 07:54:13;;;;;;;2.20;1.05;;;;;;;;;;5014178;28;20064;-89
2023/04/25 07:56:40;;;;;;;3.55;1.85;;;;;;;;;;5014434;28;20049;-89
2023/04/25 07:59:19;;;;;;;1.73;0.88;;;;;;;;;;5014158;28;20058;-89
2023/04/25 08:01:46;;;;;;;1.13;1.02;;;;;;;;;;5014056;28;20065;-88
2023/04/25 08:04:13;;;;;;;2.10;1.08;;;;;;;;;;5013868;28;20049;-89
2023/04/25 08:06:41;;;;;;;4.03;1.17;;;;;;;;;;5014762;28;20046;-88
2023/04/25 08:09:09;;;;;;;1.77;1.40;;;;;;;;;;5013929;28;20065;-88
2023/04/25 08:11:37;;;;;;;5.30;1.30;;;;;;;;;;5013877;28;20100;-88
2023/04/25 08:14:04;;;;;;;2.47;1.75;;;;;;;;;;5013987;28;20088;-88
2023/04/25 08:16:31;;;;;;;6.53;1.80;;;;;;;;;;5013768;28;20046;-88
2023/04/25 08:18:59;;;;;;;3.60;1.23;;;;;;;;;;5013730;28;20133;-89
2023/04/25 08:21:27;;;;;;;6.00;2.03;;;;;;;;;;5013333;28;20141;-88
2023/04/25 08:23:55;;;;;;;7.97;1.33;;;;;;;;;;5014504;28;20133;-88
2023/04/25 08:26:23;;;;;;;1.63;1.20;;;;;;;;;;5013457;28;20045;-89
2023/04/25 08:28:50;;;;;;;1.40;1.30;;;;;;;;;;5014644;28;20133;-88
2023/04/25 08:31:17;;;;;;;3.15;1.50;;;;;;;;;;5013469;28;20137;-89
2023/04/25 08:33:45;;;;;;;2.75;1.30;;;;;;;;;;5013640;28;20111;-88
2023/04/25 08:36:12;;;;;;;2.65;1.25;;;;;;;;;;5014330;28;20056;-88
2023/04/25 08:38:47;;;;;;;2.92;1.42;;;;;;;;;;5014327;28;20128;-89
2023/04/25 08:41:15;;;;;;;1.95;1.40;;;;;;;;;;5013266;28;20049;-88
2023/04/25 08:43:44;;;;;;;4.72;1.27;;;;;;;;;;5014186;28;20418;-88
2023/04/25 08:46:12;;;;;;;1.35;1.25;;;;;;;;;;5013046;28;20049;-89
2023/04/25 08:48:41;;;;;;;5.60;1.50;;;;;;;;;;5014391;28;20085;-89
2023/04/25 08:51:09;;;;;;;3.83;1.33;;;;;;;;;;5012759;28;20096;-89
2023/04/25 08:53:36;;;;;;;4.05;1.17;;;;;;;;;;5013075;28;20060;-89
2023/04/25 08:56:06;;;;;;;1.58;1.40;;;;;;;;;;5013096;28;20058;-89
2023/04/25 08:58:33;;;;;;;3.92;1.73;;;;;;;;;;5012914;28;20064;-89
2023/04/25 09:01:00;;;;;;;4.18;1.50;;;;;;;;;;5014155;28;20056;-89
2023/04/25 09:03:28;;;;;;;12.85;2.03;;;;;;;;;;5012631;28;20045;-89
2023/04/25 09:05:56;;;;;;;5.57;2.33;;;;;;;;;;5012735;28;20060;-89
2023/04/25 09:08:23;;;;;;;2.35;1.50;;;;;;;;;;5014133;28;20053;-89
2023/04/25 09:10:50;;;;;;;2.80;1.17;;;;;;;;;;5013143;28;20158;-89
2023/04/25 09:13:24;;;;;;;5.30;1.50;;;;;;;;;;5012995;28;20050;-89
2023/04/25 09:15:52;;;;;;;1.38;1.20;;;;;;;;;;5013517;28;20046;-90
2023/04/25 09:18:28;;;;;;;2.95;1.00;;;;;;;;;;5012501;28;20097;-89
2023/04/25 09:21:10;;;;;;;2.33;1.10;;;;;;;;;;5012485;28;20064;-90
2023/04/25 09:23:42;;;;;;;1.17;0.80;;;;;;;;;;5013957;28;20490;-89
2023/04/25 09:26:09;;;;;;;1.38;0.85;;;;;;;;;;5013656;28;20073;-89
2023/04/25 09:28:37;;;;;;;2.53;1.00;;;;;;;;;;5012921;28;20486;-90
2023/04/25 09:31:05;;;;;;;1.45;0.98;;;;;;;;;;5013922;28;20554;-89
2023/04/25 09:33:37;;;;;;;2.25;0.98;;;;;;;;;;5012843;28;20086;-94
2023/04/25 09:36:05;;;;;;;1.50;1.00;;;;;;;;;;5012670;28;20474;-90
2023/04/25 09:38:33;;;;;;;1.08;1.05;;;;;;;;;;5013153;28;20050;-91
2023/04/25 09:41:00;;;;;;;1.77;1.20;;;;;;;;;;5012974;28;20486;-92
2023/04/25 09:43:28;;;;;;;1.95;1.38;;;;;;;;;;5013711;28;20061;-91
2023/04/25 09:45:58;;;;;;;4.45;1.50;;;;;;;;;;5013809;28;20406;-90
2023/04/25 09:48:27;;;;;;;1.50;1.40;;;;;;;;;;5012881;28;20089;-90
2023/04/25 09:51:03;;;;;;;1.27;1.17;;;;;;;;;;5013550;28;20046;-89
2023/04/25 09:53:31;;;;;;;4.72;1.73;;;;;;;;;;5012510;28;20046;-89
2023/04/25 09:56:00;;;;;;;1.77;1.48;;;;;;;;;;5013782;28;20052;-90
2023/04/25 09:58:30;;;;;;;1.85;1.75;;;;;;;;;;5013847;28;20054;-89
2023/04/25 10:01:00;;;;;;;11.13;1.98;;;;;;;;;;5013566;28;20085;-90
2023/04/25 10:03:30;;;;;;;1.58;1.48;;;;;;;;;;5017376;28;20108;-90
2023/04/25 10:06:00;;;;;;;2.50;1.55;;;;;;;;;;5017341;28;20042;-90
2023/04/25 10:08:31;;;;;;;1.38;1.27;;;;;;;;;;5016359;28;20323;-90
2023/04/25 10:11:09;;;;;;;3.00;1.60;;;;;;;;;;5017368;28;20046;-90
2023/04/25 10:13:36;;;;;;;1.80;1.50;;;;;;;;;;5016298;28;20049;-91
2023/04/25 10:16:04;;;;;;;3.00;2.40;;;;;;;;;;5016039;28;20056;-88
2023/04/25 10:18:32;;;;;;;4.05;2.30;;;;;;;;;;5016344;28;20049;-90
2023/04/25 10:21:04;;;;;;;5.68;2.92;;;;;;;;;;5015565;28;20062;-92
2023/04/25 10:23:34;;;;;;;2.80;2.60;;;;;;;;;;5016225;28;20054;-90
2023/04/25 10:26:02;;;;;;;3.40;2.10;;;;;;;;;;5016886;28;20061;-90
2023/04/25 10:28:29;;;;;;;2.95;2.08;;;;;;;;;;5016266;28;20050;-89
2023/04/25 10:31:00;;;;;;;2.78;2.20;;;;;;;;;;5015931;28;20052;-89
2023/04/25 10:33:35;;;;;;;3.28;2.10;;;;;;;;;;5015705;28;20068;-89
2023/04/25 10:36:15;;;;;;;2.45;1.40;;;;;;;;;;5015629;28;20113;-90
2023/04/25 10:38:43;;;;;;;9.05;1.42;;;;;;;;;;5016019;28;20054;-89
2023/04/25 10:41:11;;;;;;;2.45;1.10;;;;;;;;;;5015526;28;20061;-90
2023/04/25 10:43:39;;;;;;;0.90;0.90;;;;;;;;;;5015292;28;20081;-90
2023/04/25 10:46:14;;;;;;;2.15;1.15;;;;;;;;;;5016338;28;20049;-90
2023/04/25 10:48:52;;;;;;;7.97;1.23;;;;;;;;;;5016541;28;20058;-89
2023/04/25 10:51:21;;;;;;;2.83;1.00;;;;;;;;;;5016177;28;20056;-90
2023/04/25 10:53:57;;;;;;;1.60;0.80;;;;;;;;;;5015482;28;20053;-90
2023/04/25 10:56:32;;;;;;;1.05;0.93;;;;;;;;;;5016349;28;20058;-92
2023/04/25 10:59:25;;;;;;;0.70;0.70;;;;;;;;;;5016090;28;20129;-89
2023/04/25 11:01:54;;;;;;;0.67;0.67;;;;;;;;;;5015316;28;20045;-90
2023/04/25 11:04:23;;;;;;;1.30;0.93;;;;;;;;;;5016147;28;20316;-90
2023/04/25 11:06:53;;;;;;;0.60;0.57;;;;;;;;;;5014940;28;20406;-92
2023/04/25 11:09:33;;;;;;;0.80;0.80;;;;;;;;;;5015497;28;20142;-92
2023/04/25 11:12:00;;;;;;;0.68;0.68;;;;;;;;;;5014924;28;20549;-90
2023/04/25 11:14:28;;;;;;;0.70;0.70;;;;;;;;;;5015467;28;20111;-91
2023/04/25 11:16:55;;;;;;;0.60;0.60;;;;;;;;;;5014808;28;20076;-91
2023/04/25 11:19:26;;;;;;;0.70;0.70;;;;;;;;;;5015363;28;20085;-89
2023/04/25 11:21:56;;;;;;;1.35;0.95;;;;;;;;;;5015766;28;20058;-90
2023/04/25 11:24:30;;;;;;;2.60;1.10;;;;;;;;;;5015678;28;20054;-91
2023/04/25 11:27:04;;;;;;;2.25;1.35;;;;;;;;;;5014547;28;20088;-90
2023/04/25 11:29:32;;;;;;;2.38;1.83;;;;;;;;;;5015402;28;20050;-89
2023/04/25 11:32:00;;;;;;;5.85;1.45;;;;;;;;;;5015581;28;20058;-90
2023/04/25 11:34:30;;;;;;;1.17;1.10;;;;;;;;;;5014316;28;20501;-89
2023/04/25 11:36:58;;;;;;;2.35;1.55;;;;;;;;;;5014363;28;20144;-86
2023/04/25 11:39:25;;;;;;;2.33;1.80;;;;;;;;;;5014533;28;20096;-86
2023/04/25 11:41:53;;;;;;;1.40;1.30;;;;;;;;;;5014062;28;20147;-87
2023/04/25 11:44:21;;;;;;;1.30;1.20;;;;;;;;;;5013953;28;20065;-86
2023/04/25 11:46:48;;;;;;;2.88;1.23;;;;;;;;;;5015326;28;20046;-88
2023/04/25 11:49:17;;;;;;;2.28;1.40;;;;;;;;;;5014127;28;20056;-87
2023/04/25 11:51:47;;;;;;;4.85;1.20;;;;;;;;;;5014023;28;20045;-87
2023/04/25 11:54:14;;;;;;;2.55;1.60;;;;;;;;;;5014025;28;20061;-87
2023/04/25 11:56:45;;;;;;;4.03;1.23;;;;;;;;;;5014663;28;20093;-86
2023/04/25 11:59:13;;;;;;;3.13;1.75;;;;;;;;;;5013997;28;20060;-87
2023/04/25 12:01:48;;;;;;;5.30;1.23;;;;;;;;;;5015126;28;20132;-89
2023/04/25 12:04:20;;;;;;;3.05;1.65;;;;;;;;;;5015073;28;20085;-90
2023/04/25 12:06:49;;;;;;;1.63;1.52;;;;;;;;;;5014136;28;20056;-88
2023/04/25 12:09:18;;;;;;;4.20;1.50;;;;;;;;;;5013836;28;20136;-88
2023/04/25 12:11:46;;;;;;;1.92;1.45;;;;;;;;;;5013678;28;20506;-88
2023/04/25 12:14:24;;;;;;;3.63;1.60;;;;;;;;;;5013779;28;20054;-88
2023/04/25 12:16:52;;;;;;;3.63;1.88;;;;;;;;;;5013812;28;20088;-90
2023/04/25 12:19:21;;;;;;;5.35;2.13;;;;;;;;;;5013722;28;20060;-88
2023/04/25 12:21:49;;;;;;;12.35;2.80;;;;;;;;;;5013679;28;20117;-89
2023/04/25 12:24:25;;;;;;;4.70;1.73;;;;;;;;;;5013978;28;20053;-89
2023/04/25 12:27:00;;;;;;;5.53;2.08;;;;;;;;;;5014431;28;20584;-88
2023/04/25 12:29:29;;;;;;;9.68;2.33;;;;;;;;;;5013907;28;20054;-89
2023/04/25 12:32:08;;;;;;;3.50;2.17;;;;;;;;;;5013502;28;20088;-89
2023/04/25 12:34:35;;;;;;;6.00;2.13;;;;;;;;;;5014152;28;20060;-88
2023/04/25 12:37:03;;;;;;;6.15;2.10;;;;;;;;;;5013590;28;20089;-88
2023/04/25 12:39:30;;;;;;;4.25;2.42;;;;;;;;;;5013335;28;20405;-90
2023/04/25 12:41:58;;;;;;;10.15;2.65;;;;;;;;;;5014762;28;20499;-88
2023/04/25 12:44:26;;;;;;;9.63;2.70;;;;;;;;;;5014247;28;20054;-89
2023/04/25 12:46:54;;;;;;;5.78;2.25;;;;;;;;;;5013904;28;20129;-88
2023/04/25 12:49:22;;;;;;;8.75;2.72;;;;;;;;;;5013350;28;20054;-88
2023/04/25 12:51:51;;;;;;;7.97;2.97;;;;;;;;;;5013480;28;20054;-88
2023/04/25 12:54:18;;;;;;;6.15;2.72;;;;;;;;;;5013509;28;20137;-89
2023/04/25 12:56:46;;;;;;;5.75;2.30;;;;;;;;;;5014014;28;20081;-90
2023/04/25 12:59:13;;;;;;;5.32;2.35;;;;;;;;;;5012944;28;20054;-88
2023/04/25 13:01:41;;;;;;;4.45;1.90;;;;;;;;;;5013074;28;20042;-89
2023/04/25 13:04:08;;;;;;;7.80;2.67;;;;;;;;;;5012733;28;20532;-89
2023/04/25 13:06:35;;;;;;;8.95;1.98;;;;;;;;;;5013095;28;20084;-90
2023/04/25 13:09:03;;;;;;;4.18;1.88;;;;;;;;;;5013727;28;20053;-89
2023/04/25 13:11:31;;;;;;;4.90;1.60;;;;;;;;;;5012913;28;20046;-88
2023/04/25 13:13:58;;;;;;;7.53;1.90;;;;;;;;;;5012710;28;20053;-89
2023/04/25 13:16:25;;;;;;;3.97;1.45;;;;;;;;;;5013747;28;20049;-89
2023/04/25 13:18:52;;;;;;;6.20;2.10;;;;;;;;;;5013823;28;20057;-90
2023/04/25 13:21:20;;;;;;;5.15;1.60;;;;;;;;;;5012933;28;20410;-89
2023/04/25 13:23:47;;;;;;;5.53;1.90;;;;;;;;;;5012506;28;20045;-90
2023/04/25 13:26:15;;;;;;;6.32;1.80;;;;;;;;;;5013723;28;20050;-90
2023/04/25 13:28:43;;;;;;;8.07;1.95;;;;;;;;;;5012954;28;20049;-88
2023/04/25 13:31:12;;;;;;;15.32;6.72;;;;;;;;;;5012721;28;20422;-88
2023/04/25 13:33:40;;;;;;;8.45;2.40;;;;;;;;;;5012514;28;20049;-88
2023/04/25 13:36:07;;;;;;;7.15;2.75;;;;;;;;;;5015329;28;20054;-90
2023/04/25 13:38:34;;;;;;;3.58;1.92;;;;;;;;;;5017520;28;20560;-89
2023/04/25 13:41:01;;;;;;;6.70;1.98;;;;;;;;;;5017550;28;20502;-90
2023/04/25 13:43:29;;;;;;;9.07;2.17;;;;;;;;;;5016780;28;20136;-90
2023/04/25 13:45:56;;;;;;;7.72;2.35;;;;;;;;;;5017473;28;20053;-90
2023/04/25 13:48:25;;;;;;;7.05;1.88;;;;;;;;;;5017590;28;20046;-90
2023/04/25 13:50:52;;;;;;;8.63;1.98;;;;;;;;;;5017487;28;20422;-90
2023/04/25 13:53:19;;;;;;;11.13;2.15;;;;;;;;;;5015853;28;20133;-90
2023/04/25 13:55:46;;;;;;;11.60;2.08;;;;;;;;;;5017450;28;20072;-90
2023/04/25 13:58:13;;;;;;;5.40;2.20;;;;;;;;;;5017123;28;20046;-90
2023/04/25 14:00:43;;;;;;;10.95;2.08;;;;;;;;;;5016399;28;20461;-87
2023/04/25 14:03:10;;;;;;;11.13;1.95;;;;;;;;;;5016845;28;20659;-90
2023/04/25 14:05:38;;;;;;;5.97;1.75;;;;;;;;;;5015889;28;20461;-90
2023/04/25 14:08:07;;;;;;;16.90;9.38;;;;;;;;;;5016911;28;20042;-91
2023/04/25 14:10:35;;;;;;;7.75;2.47;;;;;;;;;;5016616;28;20552;-91
2023/04/25 14:13:03;;;;;;;11.25;6.10;;;;;;;;;;5016021;28;20061;-90
2023/04/25 14:15:34;;;;;;;6.22;2.22;;;;;;;;;;5016697;28;20465;-90
2023/04/25 14:18:02;;;;;;;6.05;1.83;;;;;;;;;;5015737;28;20137;-89
2023/04/25 14:20:30;;;;;;;9.35;2.72;;;;;;;;;;5015140;28;20057;-90
2023/04/25 14:22:57;;;;;;;8.30;2.28;;;;;;;;;;5016166;28;20050;-90
2023/04/25 14:25:25;;;;;;;11.88;4.57;;;;;;;;;;5014967;28;20062;-90
2023/04/25 14:27:52;;;;;;;11.90;3.30;;;;;;;;;;5015018;28;20045;-89
2023/04/25 14:30:21;;;;;;;9.30;2.53;;;;;;;;;;5016204;28;20054;-90
2023/04/25 14:32:51;;;;;;;11.70;2.63;;;;;;;;;;5015676;28;20125;-90
2023/04/25 14:35:19;;;;;;;9.23;2.22;;;;;;;;;;5014504;28;20111;-90
2023/04/25 14:37:46;;;;;;;9.38;2.17;;;;;;;;;;5015011;28;20049;-90
2023/04/25 14:40:15;;;;;;;4.90;2.03;;;;;;;;;;5015692;28;20068;-89
2023/04/25 14:42:42;;;;;;;9.60;2.13;;;;;;;;;;5014772;28;20045;-90
2023/04/25 14:45:09;;;;;;;6.00;2.28;;;;;;;;;;5014258;28;20430;-90
2023/04/25 14:47:37;;;;;;;28.60;4.20;;;;;;;;;;5013831;28;20046;-90